Time;durP1;ratioP1;P1;durP2;ratioP2;P2;SDS_P1;SDS_P2;PMS_P1;PMS_P2;Temp;Humidity;BMP_temperature;BMP_pressure;BME280_temperature;BME280_humidity;BME280_pressure;Samples;Min_cycle;Max_cycle;Signal;HPM_P1;HPM_P2
2023/05/15 00:02:11;;;;;;;1.50;1.40;;;11.70;98.50;;;;;;5032961;28;20185;-76
2023/05/15 00:04:37;;;;;;;1.67;1.63;;;11.70;98.50;;;;;;5034461;28;20180;-76
2023/05/15 00:07:03;;;;;;;1.30;1.30;;;11.70;98.50;;;;;;5030012;28;20173;-76
2023/05/15 00:09:29;;;;;;;1.35;1.35;;;11.70;98.50;;;;;;5035004;28;20664;-76
2023/05/15 00:11:55;;;;;;;1.55;1.48;;;11.70;98.50;;;;;;5029382;28;20189;-76
2023/05/15 00:14:21;;;;;;;1.30;1.30;;;11.70;98.50;;;;;;5032365;28;20187;-76
2023/05/15 00:16:46;;;;;;;3.50;1.63;;;11.60;98.50;;;;;;5043902;28;20618;-76
2023/05/15 00:19:13;;;;;;;1.52;1.52;;;11.60;98.50;;;;;;5033973;28;20188;-76
2023/05/15 00:21:38;;;;;;;1.15;1.15;;;11.60;98.50;;;;;;5028793;28;20840;-76
2023/05/15 00:24:04;;;;;;;1.25;1.25;;;11.60;98.50;;;;;;5028175;28;20263;-76
2023/05/15 00:26:30;;;;;;;1.55;1.52;;;11.60;98.50;;;;;;5045466;28;20241;-76
2023/05/15 00:28:56;;;;;;;1.48;1.48;;;11.60;98.50;;;;;;5030352;28;20191;-77
2023/05/15 00:31:22;;;;;;;1.92;1.83;;;11.60;98.50;;;;;;5034040;28;20246;-75
2023/05/15 00:33:47;;;;;;;1.70;1.60;;;11.60;98.50;;;;;;5029140;28;20184;-77
2023/05/15 00:36:13;;;;;;;2.10;2.00;;;11.60;98.50;;;;;;5031819;28;20179;-77
2023/05/15 00:38:39;;;;;;;2.35;1.33;;;11.50;98.50;;;;;;5030042;28;20195;-76
2023/05/15 00:41:06;;;;;;;1.58;1.55;;;11.50;98.50;;;;;;5031756;28;20207;-76
2023/05/15 00:43:33;;;;;;;1.42;1.42;;;11.50;98.50;;;;;;5034173;28;20559;-76
2023/05/15 00:46:01;;;;;;;1.65;1.65;;;11.50;98.50;;;;;;5031766;28;20192;-76
2023/05/15 00:48:28;;;;;;;1.52;1.52;;;11.40;98.50;;;;;;5030784;28;20634;-77
2023/05/15 00:50:56;;;;;;;1.52;1.50;;;11.30;98.50;;;;;;5034230;28;20654;-77
2023/05/15 00:53:23;;;;;;;1.33;1.33;;;11.20;98.50;;;;;;5021833;28;20553;-77
2023/05/15 00:55:49;;;;;;;1.30;1.30;;;11.20;98.50;;;;;;5025524;28;20180;-77
2023/05/15 00:58:15;;;;;;;1.98;1.88;;;11.20;98.50;;;;;;5029066;28;20263;-77
2023/05/15 01:00:42;;;;;;;1.63;1.52;;;11.00;98.50;;;;;;5029267;28;20212;-77
2023/05/15 01:03:08;;;;;;;1.38;1.38;;;11.00;98.50;;;;;;5028568;28;20176;-77
2023/05/15 01:05:34;;;;;;;1.45;1.45;;;11.00;98.50;;;;;;5029218;28;20203;-78
2023/05/15 01:08:15;;;;;;;1.98;1.88;;;11.00;98.50;;;;;;5036181;28;20176;-78
2023/05/15 01:10:42;;;;;;;1.33;1.33;;;11.00;98.50;;;;;;5031246;28;20184;-78
2023/05/15 01:13:09;;;;;;;1.55;1.45;;;11.00;98.50;;;;;;5027667;28;20191;-78
2023/05/15 01:15:34;;;;;;;1.63;1.52;;;10.90;98.50;;;;;;5029246;28;20176;-78
2023/05/15 01:18:00;;;;;;;1.50;1.40;;;10.80;98.50;;;;;;5031785;28;20180;-78
2023/05/15 01:20:26;;;;;;;2.10;1.85;;;10.80;98.50;;;;;;5038404;28;20679;-78
2023/05/15 01:23:08;;;;;;;1.20;1.20;;;10.90;98.50;;;;;;5029582;28;20169;-78
2023/05/15 01:25:45;;;;;;;1.67;1.58;;;11.00;98.50;;;;;;5027720;28;20184;-77
2023/05/15 01:28:19;;;;;;;1.27;1.17;;;11.00;98.50;;;;;;5031089;28;20199;-77
2023/05/15 01:30:47;;;;;;;1.40;1.30;;;11.00;98.50;;;;;;5036077;28;20203;-77
2023/05/15 01:33:32;;;;;;;1.40;1.40;;;11.10;98.50;;;;;;5026748;28;20230;-77
2023/05/15 01:36:06;;;;;;;1.75;1.65;;;11.00;98.50;;;;;;5027343;28;20175;-77
2023/05/15 01:38:46;;;;;;;1.95;1.60;;;11.00;98.50;;;;;;5023301;28;20261;-77
2023/05/15 01:41:34;;;;;;;1.48;1.35;;;11.00;98.50;;;;;;5029353;28;20207;-77
2023/05/15 01:44:25;;;;;;;2.55;1.88;;;11.00;98.50;;;;;;5029154;28;20247;-78
2023/05/15 01:46:56;;;;;;;1.23;1.23;;;11.00;98.50;;;;;;5028750;28;20172;-78
2023/05/15 01:49:25;;;;;;;1.73;1.63;;;11.00;98.50;;;;;;5027736;28;20188;-77
2023/05/15 01:52:00;;;;;;;1.60;1.60;;;11.00;98.50;;;;;;5028581;28;20184;-77
2023/05/15 01:54:28;;;;;;;1.98;1.88;;;10.90;98.50;;;;;;5022452;28;20676;-77
2023/05/15 01:56:56;;;;;;;1.65;1.55;;;10.90;98.50;;;;;;5036791;28;20743;-77
2023/05/15 01:59:22;;;;;;;1.70;1.60;;;10.90;98.50;;;;;;5028359;28;20184;-77
2023/05/15 02:01:49;;;;;;;1.27;1.27;;;10.90;98.50;;;;;;5028785;28;20219;-77
2023/05/15 02:04:18;;;;;;;1.48;1.48;;;10.80;98.50;;;;;;5027740;28;20198;-78
2023/05/15 02:06:46;;;;;;;1.75;1.67;;;10.80;98.50;;;;;;5028278;28;20259;-77
2023/05/15 02:09:13;;;;;;;1.20;1.20;;;10.80;98.50;;;;;;5025122;28;20965;-77
2023/05/15 02:11:40;;;;;;;1.83;1.73;;;10.70;98.50;;;;;;5027284;28;20188;-77
2023/05/15 02:14:07;;;;;;;1.65;1.65;;;10.60;98.50;;;;;;5030984;28;20238;-77
2023/05/15 02:16:33;;;;;;;1.23;1.20;;;10.60;98.50;;;;;;5019004;28;20175;-77
2023/05/15 02:18:58;;;;;;;2.03;1.92;;;10.70;98.50;;;;;;5030618;28;20184;-77
2023/05/15 02:21:25;;;;;;;3.30;1.60;;;10.70;98.50;;;;;;5038300;28;20224;-77
2023/05/15 02:23:50;;;;;;;1.80;1.70;;;10.60;98.50;;;;;;5027120;28;20175;-77
2023/05/15 02:26:38;;;;;;;2.20;2.00;;;10.70;98.50;;;;;;5025736;28;20184;-77
2023/05/15 02:29:20;;;;;;;2.05;1.95;;;10.60;98.50;;;;;;5025404;28;20176;-77
2023/05/15 02:32:13;;;;;;;1.95;1.85;;;10.60;98.50;;;;;;5022780;28;20191;-78
2023/05/15 02:34:44;;;;;;;2.08;1.98;;;10.70;98.50;;;;;;5024840;28;20173;-78
2023/05/15 02:37:14;;;;;;;1.95;1.85;;;10.70;98.50;;;;;;5028982;28;20200;-77
2023/05/15 02:39:42;;;;;;;1.90;1.80;;;10.70;98.50;;;;;;5027637;28;20173;-77
2023/05/15 02:42:10;;;;;;;1.90;1.80;;;10.70;98.50;;;;;;5025671;28;20195;-77
2023/05/15 02:44:36;;;;;;;1.73;1.73;;;10.80;98.50;;;;;;5024046;28;20192;-77
2023/05/15 02:47:03;;;;;;;1.77;1.67;;;10.80;98.50;;;;;;5017979;28;20234;-77
2023/05/15 02:49:29;;;;;;;2.05;1.95;;;10.60;98.50;;;;;;5027980;28;20192;-77
2023/05/15 02:51:54;;;;;;;2.83;2.50;;;10.60;98.50;;;;;;5028362;28;20165;-77
2023/05/15 02:54:20;;;;;;;4.07;2.90;;;10.70;98.50;;;;;;5021848;28;20181;-77
2023/05/15 02:56:46;;;;;;;2.58;2.38;;;10.70;98.50;;;;;;5028456;28;20185;-78
2023/05/15 02:59:17;;;;;;;2.00;1.90;;;10.60;98.50;;;;;;5029134;28;20181;-77
2023/05/15 03:01:43;;;;;;;1.75;1.75;;;10.70;98.50;;;;;;5027856;28;20208;-77
2023/05/15 03:04:09;;;;;;;1.42;1.42;;;10.70;98.50;;;;;;5026708;28;20172;-77
2023/05/15 03:06:34;;;;;;;1.98;1.90;;;10.80;98.50;;;;;;5028042;28;20270;-77
2023/05/15 03:09:00;;;;;;;2.50;1.88;;;10.80;98.50;;;;;;5023967;28;20173;-77
2023/05/15 03:11:26;;;;;;;3.40;2.13;;;10.90;98.50;;;;;;5022809;28;20216;-77
2023/05/15 03:13:52;;;;;;;1.83;1.73;;;10.90;98.50;;;;;;5029463;28;20218;-77
2023/05/15 03:16:17;;;;;;;2.53;2.42;;;10.90;98.50;;;;;;5028931;28;20267;-78
2023/05/15 03:18:43;;;;;;;2.50;2.38;;;10.80;98.50;;;;;;5039326;28;20184;-76
2023/05/15 03:21:08;;;;;;;2.60;2.47;;;10.80;98.50;;;;;;5028042;28;20224;-76
2023/05/15 03:23:34;;;;;;;3.10;2.90;;;10.80;98.50;;;;;;5028205;28;20207;-76
2023/05/15 03:25:59;;;;;;;2.72;2.63;;;10.80;98.50;;;;;;5028648;28;20176;-76
2023/05/15 03:28:25;;;;;;;2.28;2.13;;;10.80;98.50;;;;;;5035513;28;20881;-76
2023/05/15 03:30:51;;;;;;;2.20;2.10;;;10.90;98.50;;;;;;5028622;28;20198;-77
2023/05/15 03:33:16;;;;;;;2.47;2.38;;;10.90;98.50;;;;;;5021451;28;20197;-77
2023/05/15 03:35:43;;;;;;;2.75;2.42;;;10.80;98.50;;;;;;5037201;28;20191;-76
2023/05/15 03:38:09;;;;;;;2.70;2.50;;;10.90;98.50;;;;;;5030356;28;20756;-77
2023/05/15 03:40:37;;;;;;;2.63;2.40;;;11.00;98.50;;;;;;5035100;28;20215;-77
2023/05/15 03:43:03;;;;;;;2.45;2.35;;;11.00;98.50;;;;;;5029662;28;20179;-77
2023/05/15 03:45:28;;;;;;;2.35;2.22;;;11.00;98.50;;;;;;5028622;28;20176;-77
2023/05/15 03:47:54;;;;;;;5.03;2.40;;;11.00;98.50;;;;;;5030633;28;20177;-77
2023/05/15 03:50:22;;;;;;;2.60;2.42;;;11.10;98.50;;;;;;5037987;28;20273;-77
2023/05/15 03:52:47;;;;;;;2.30;2.20;;;11.10;98.50;;;;;;5036375;28;20622;-77
2023/05/15 03:55:13;;;;;;;2.00;1.90;;;11.20;98.50;;;;;;5028419;28;20184;-77
2023/05/15 03:57:40;;;;;;;3.97;2.35;;;11.20;98.50;;;;;;5039102;28;20184;-76
2023/05/15 04:00:09;;;;;;;2.40;2.30;;;11.20;98.50;;;;;;5032037;28;20219;-78
2023/05/15 04:02:36;;;;;;;9.55;8.65;;;11.20;98.50;;;;;;5024090;28;20180;-78
2023/05/15 04:05:03;;;;;;;8.70;7.80;;;11.30;98.50;;;;;;5029278;28;20657;-77
2023/05/15 04:07:30;;;;;;;5.15;4.85;;;11.30;98.50;;;;;;5027913;28;20746;-80
2023/05/15 04:09:55;;;;;;;3.13;2.97;;;11.30;98.50;;;;;;5029951;28;20192;-80
2023/05/15 04:12:21;;;;;;;3.03;2.83;;;11.40;98.50;;;;;;5026809;28;20180;-79
2023/05/15 04:14:47;;;;;;;4.15;2.25;;;11.40;98.50;;;;;;5030560;28;20187;-79
2023/05/15 04:17:13;;;;;;;2.47;2.38;;;11.40;98.50;;;;;;5034711;28;20176;-79
2023/05/15 04:19:39;;;;;;;2.58;2.38;;;11.40;98.50;;;;;;5029448;28;20200;-80
2023/05/15 04:22:05;;;;;;;2.30;2.20;;;11.40;98.50;;;;;;5030505;28;20176;-79
2023/05/15 04:24:31;;;;;;;3.75;2.85;;;11.40;98.50;;;;;;5030285;28;20186;-79
2023/05/15 04:26:56;;;;;;;3.00;2.80;;;11.40;98.50;;;;;;5028681;28;20575;-76
2023/05/15 04:29:22;;;;;;;3.20;2.50;;;11.40;98.50;;;;;;5021062;28;20194;-77
2023/05/15 04:31:47;;;;;;;2.58;2.30;;;11.30;98.50;;;;;;5024810;28;20684;-78
2023/05/15 04:34:13;;;;;;;2.55;2.45;;;11.30;98.50;;;;;;5028700;28;20255;-74
2023/05/15 04:36:39;;;;;;;1.92;1.83;;;11.30;98.50;;;;;;5031316;28;20208;-75
2023/05/15 04:39:05;;;;;;;2.78;2.55;;;11.30;98.50;;;;;;5027085;28;20291;-76
2023/05/15 04:41:32;;;;;;;2.63;2.42;;;11.20;98.50;;;;;;5023305;28;20218;-77
2023/05/15 04:43:57;;;;;;;2.10;2.08;;;11.30;98.50;;;;;;5028380;28;20715;-82
2023/05/15 04:46:23;;;;;;;2.40;2.30;;;11.30;98.50;;;;;;5026747;28;20180;-76
2023/05/15 04:48:49;;;;;;;2.42;2.20;;;11.40;98.50;;;;;;5028888;28;20287;-75
2023/05/15 04:51:15;;;;;;;3.13;2.83;;;11.40;98.50;;;;;;5031436;28;20258;-75
2023/05/15 04:53:40;;;;;;;3.00;2.80;;;11.40;98.50;;;;;;5025862;28;20655;-76
2023/05/15 04:56:06;;;;;;;4.85;3.05;;;11.50;98.50;;;;;;5029070;28;20238;-75
2023/05/15 04:58:32;;;;;;;2.70;2.53;;;11.50;98.50;;;;;;5033854;28;20250;-76
2023/05/15 05:00:57;;;;;;;3.08;2.92;;;11.60;98.50;;;;;;5024443;28;20261;-78
2023/05/15 05:03:23;;;;;;;2.75;2.55;;;11.60;98.50;;;;;;5028833;28;20180;-78
2023/05/15 05:05:48;;;;;;;3.45;3.15;;;11.60;98.50;;;;;;5027772;28;20168;-78
2023/05/15 05:08:14;;;;;;;3.38;3.17;;;11.70;98.50;;;;;;5027826;28;20235;-78
2023/05/15 05:10:40;;;;;;;3.13;2.90;;;11.70;98.50;;;;;;5028239;28;20176;-78
2023/05/15 05:13:05;;;;;;;2.10;2.00;;;11.70;98.50;;;;;;5024036;28;20181;-78
2023/05/15 05:15:31;;;;;;;2.72;2.63;;;11.80;98.50;;;;;;5024741;28;20704;-78
2023/05/15 05:17:57;;;;;;;2.65;2.55;;;11.80;98.50;;;;;;5026318;28;20188;-79
2023/05/15 05:20:22;;;;;;;3.10;2.80;;;11.90;98.50;;;;;;5026719;28;20239;-78
2023/05/15 05:22:48;;;;;;;3.03;2.83;;;11.90;98.50;;;;;;5026852;28;20247;-78
2023/05/15 05:25:14;;;;;;;3.75;3.55;;;12.00;98.50;;;;;;5026841;28;20576;-77
2023/05/15 05:27:39;;;;;;;9.23;3.22;;;12.00;98.50;;;;;;5025901;28;20180;-78
2023/05/15 05:30:07;;;;;;;5.22;2.97;;;12.10;98.50;;;;;;5029268;28;20267;-78
2023/05/15 05:32:33;;;;;;;3.63;3.40;;;12.10;98.50;;;;;;5027932;28;20263;-78
2023/05/15 05:34:58;;;;;;;3.55;3.25;;;12.20;98.50;;;;;;5029240;28;20907;-77
2023/05/15 05:37:24;;;;;;;3.58;3.38;;;12.30;98.50;;;;;;5028763;28;20196;-77
2023/05/15 05:39:50;;;;;;;4.60;3.50;;;12.40;98.50;;;;;;5027238;28;20184;-78
2023/05/15 05:42:15;;;;;;;3.50;3.20;;;12.40;98.50;;;;;;5028831;28;20658;-78
2023/05/15 05:44:41;;;;;;;3.03;2.92;;;12.50;98.50;;;;;;5029204;28;20180;-78
2023/05/15 05:47:07;;;;;;;3.60;3.33;;;12.50;98.50;;;;;;5029138;28;20184;-78
2023/05/15 05:49:32;;;;;;;3.40;3.20;;;12.60;98.50;;;;;;5029153;28;20239;-79
2023/05/15 05:52:06;;;;;;;3.30;2.97;;;12.60;98.50;;;;;;5029035;28;20174;-79
2023/05/15 05:54:31;;;;;;;3.47;3.15;;;12.70;98.50;;;;;;5022754;28;20676;-79
2023/05/15 05:56:57;;;;;;;3.63;3.42;;;12.80;98.50;;;;;;5029069;28;20168;-79
2023/05/15 05:59:22;;;;;;;3.30;3.10;;;12.80;98.50;;;;;;5028981;28;20207;-79
2023/05/15 06:01:49;;;;;;;3.65;3.40;;;12.90;98.50;;;;;;5028725;28;20299;-78
2023/05/15 06:04:15;;;;;;;4.50;3.65;;;13.00;98.50;;;;;;5027519;28;20564;-79
2023/05/15 06:06:41;;;;;;;3.63;3.42;;;13.10;98.50;;;;;;5029129;28;20176;-79
2023/05/15 06:09:06;;;;;;;3.78;3.50;;;13.30;98.50;;;;;;5028832;28;20184;-79
2023/05/15 06:11:32;;;;;;;3.05;2.92;;;13.30;98.50;;;;;;5028874;28;20182;-80
2023/05/15 06:13:57;;;;;;;3.65;3.35;;;13.40;98.50;;;;;;5027562;28;20184;-79
2023/05/15 06:16:23;;;;;;;4.13;3.70;;;13.50;98.50;;;;;;5028758;28;20180;-79
2023/05/15 06:18:49;;;;;;;4.00;3.72;;;13.50;98.50;;;;;;5028555;28;20207;-79
2023/05/15 06:21:14;;;;;;;3.35;3.15;;;13.50;98.40;;;;;;5028174;28;20239;-77
2023/05/15 06:23:40;;;;;;;5.38;3.58;;;13.60;98.50;;;;;;5028555;28;20215;-78
2023/05/15 06:26:06;;;;;;;5.43;3.63;;;13.60;98.30;;;;;;5027590;28;20642;-78
2023/05/15 06:28:31;;;;;;;5.10;3.58;;;13.70;98.50;;;;;;5028476;28;20184;-79
2023/05/15 06:30:57;;;;;;;4.05;3.75;;;13.70;98.10;;;;;;5028324;28;20303;-78
2023/05/15 06:33:23;;;;;;;4.32;3.72;;;13.70;97.80;;;;;;5028409;28;20224;-79
2023/05/15 06:35:48;;;;;;;5.97;4.22;;;13.80;97.80;;;;;;5028477;28;20173;-78
2023/05/15 06:38:14;;;;;;;4.90;4.45;;;13.90;98.10;;;;;;5028199;28;20653;-78
2023/05/15 06:40:39;;;;;;;4.78;4.15;;;14.00;98.50;;;;;;5028376;28;20693;-79
2023/05/15 06:43:05;;;;;;;3.83;3.38;;;14.10;97.50;;;;;;5028261;28;20176;-79
2023/05/15 06:45:31;;;;;;;5.30;4.35;;;14.20;96.50;;;;;;5028650;28;20177;-79
2023/05/15 06:47:57;;;;;;;6.38;4.57;;;14.30;96.00;;;;;;5027917;28;20249;-78
2023/05/15 06:50:23;;;;;;;5.70;4.65;;;14.50;96.70;;;;;;5030695;28;20180;-79
2023/05/15 06:52:48;;;;;;;6.50;4.20;;;14.50;94.90;;;;;;5031559;28;20750;-78
2023/05/15 06:55:14;;;;;;;6.15;3.83;;;14.60;96.00;;;;;;5032305;28;20178;-78
2023/05/15 06:57:39;;;;;;;5.05;4.22;;;14.70;95.80;;;;;;5032058;28;20255;-78
2023/05/15 07:00:06;;;;;;;5.93;4.53;;;14.80;95.20;;;;;;5031922;28;20215;-77
2023/05/15 07:02:31;;;;;;;5.07;4.40;;;14.90;94.80;;;;;;5030471;28;20180;-77
2023/05/15 07:04:57;;;;;;;5.53;4.90;;;15.00;93.90;;;;;;5031220;28;20177;-79
2023/05/15 07:07:23;;;;;;;6.53;4.70;;;15.20;94.30;;;;;;5031429;28;20180;-77
2023/05/15 07:09:49;;;;;;;4.50;4.10;;;15.30;92.90;;;;;;5029202;28;20196;-77
2023/05/15 07:12:15;;;;;;;5.10;4.65;;;15.50;92.20;;;;;;5030435;28;20681;-78
2023/05/15 07:14:40;;;;;;;4.30;3.92;;;15.60;91.90;;;;;;5031900;28;20180;-78
2023/05/15 07:17:06;;;;;;;3.47;3.28;;;15.80;92.20;;;;;;5031936;28;20251;-78
2023/05/15 07:19:32;;;;;;;5.40;4.53;;;15.90;90.80;;;;;;5031621;28;20186;-78
2023/05/15 07:21:57;;;;;;;4.20;3.90;;;15.90;90.40;;;;;;5031722;28;20697;-78
2023/05/15 07:24:23;;;;;;;5.57;4.10;;;16.00;90.30;;;;;;5030493;28;20180;-77
2023/05/15 07:26:48;;;;;;;4.68;4.28;;;16.10;90.00;;;;;;5031750;28;20261;-78
2023/05/15 07:29:14;;;;;;;5.65;4.18;;;16.10;89.20;;;;;;5031308;28;20677;-77
2023/05/15 07:31:43;;;;;;;4.45;4.03;;;16.20;89.30;;;;;;5031741;28;20181;-79
2023/05/15 07:34:09;;;;;;;4.43;4.05;;;16.20;89.20;;;;;;5028808;28;20792;-78
2023/05/15 07:36:35;;;;;;;5.05;4.55;;;16.20;89.00;;;;;;5031764;28;20176;-78
2023/05/15 07:39:01;;;;;;;4.93;4.50;;;16.20;88.80;;;;;;5031334;28;20257;-78
2023/05/15 07:41:26;;;;;;;4.90;4.47;;;16.20;88.60;;;;;;5031284;28;20216;-78
2023/05/15 07:43:52;;;;;;;5.97;4.28;;;16.20;88.70;;;;;;5028230;28;20231;-79
2023/05/15 07:46:18;;;;;;;7.43;4.80;;;16.20;89.40;;;;;;5025604;28;20616;-79
2023/05/15 07:48:43;;;;;;;4.50;4.20;;;16.20;89.60;;;;;;5028643;28;20230;-79
2023/05/15 07:51:09;;;;;;;4.65;3.97;;;16.10;88.50;;;;;;5031458;28;20188;-79
2023/05/15 07:53:35;;;;;;;4.93;4.53;;;16.10;89.00;;;;;;5023198;28;20179;-79
2023/05/15 07:56:00;;;;;;;6.82;4.25;;;16.10;88.70;;;;;;5031160;28;20267;-79
2023/05/15 07:58:26;;;;;;;6.35;4.82;;;16.00;89.00;;;;;;5030917;28;20184;-79
2023/05/15 08:00:51;;;;;;;4.03;3.72;;;16.00;89.20;;;;;;5030058;28;20204;-79
2023/05/15 08:03:17;;;;;;;4.90;4.40;;;16.00;89.20;;;;;;5030881;28;20176;-79
2023/05/15 08:05:43;;;;;;;4.63;4.15;;;15.90;89.90;;;;;;5030671;28;20184;-79
2023/05/15 08:08:08;;;;;;;5.68;5.00;;;15.80;89.80;;;;;;5030626;28;20184;-79
2023/05/15 08:10:34;;;;;;;5.93;4.90;;;15.80;89.70;;;;;;5030858;28;20534;-77
2023/05/15 08:12:59;;;;;;;4.72;4.30;;;15.90;90.30;;;;;;5030621;28;20676;-78
2023/05/15 08:15:25;;;;;;;5.32;4.82;;;15.90;89.70;;;;;;5030579;28;20168;-79
2023/05/15 08:17:51;;;;;;;4.88;4.28;;;15.80;89.80;;;;;;5030293;28;20186;-79
2023/05/15 08:20:16;;;;;;;7.65;5.22;;;15.90;89.70;;;;;;5030672;28;20204;-79
2023/05/15 08:22:42;;;;;;;5.95;5.40;;;15.90;90.30;;;;;;5030358;28;20172;-78
2023/05/15 08:25:08;;;;;;;6.72;5.32;;;15.80;89.70;;;;;;5030194;28;20199;-77
2023/05/15 08:27:34;;;;;;;5.22;4.82;;;15.80;89.20;;;;;;5030238;28;20203;-78
2023/05/15 08:29:59;;;;;;;6.88;5.00;;;15.70;89.40;;;;;;5030306;28;20204;-78
2023/05/15 08:32:26;;;;;;;6.05;5.30;;;15.60;89.50;;;;;;5026565;28;20662;-79
2023/05/15 08:34:51;;;;;;;5.88;5.28;;;15.60;90.00;;;;;;5030690;28;20255;-77
2023/05/15 08:37:17;;;;;;;10.95;5.55;;;15.50;89.40;;;;;;5027677;28;20287;-76
2023/05/15 08:39:43;;;;;;;5.53;5.13;;;15.50;90.20;;;;;;5033187;28;20192;-76
2023/05/15 08:42:23;;;;;;;5.28;4.70;;;15.60;90.50;;;;;;5028283;28;20708;-76
2023/05/15 08:44:49;;;;;;;9.45;5.72;;;15.70;90.10;;;;;;5028882;28;20271;-77
2023/05/15 08:47:18;;;;;;;6.20;5.68;;;15.80;90.00;;;;;;5026902;28;20315;-77
2023/05/15 08:49:55;;;;;;;7.32;5.15;;;15.90;90.10;;;;;;5028209;28;20172;-76
2023/05/15 08:52:21;;;;;;;5.28;4.82;;;16.10;89.10;;;;;;5026595;28;20577;-76
2023/05/15 08:54:47;;;;;;;6.70;5.75;;;16.20;88.70;;;;;;5027353;28;20172;-76
2023/05/15 08:57:14;;;;;;;13.43;5.45;;;16.30;88.30;;;;;;5025534;28;20188;-76
2023/05/15 08:59:39;;;;;;;6.40;5.10;;;16.30;88.40;;;;;;5028560;28;20200;-76
2023/05/15 09:02:06;;;;;;;9.40;5.07;;;16.30;88.30;;;;;;5031724;28;20254;-76
2023/05/15 09:04:31;;;;;;;5.85;4.55;;;16.40;87.80;;;;;;5033485;28;20287;-76
2023/05/15 09:07:02;;;;;;;6.57;5.03;;;16.30;88.00;;;;;;5034657;28;20259;-76
2023/05/15 09:09:31;;;;;;;12.90;8.55;;;16.30;87.50;;;;;;5029671;28;20208;-76
2023/05/15 09:12:00;;;;;;;18.92;11.48;;;16.30;88.20;;;;;;5029604;28;20632;-76
2023/05/15 09:14:26;;;;;;;16.55;10.80;;;16.20;88.30;;;;;;5030201;28;20404;-77
2023/05/15 09:16:52;;;;;;;6.47;5.88;;;16.20;88.60;;;;;;5033006;28;20185;-77
2023/05/15 09:19:20;;;;;;;5.13;4.50;;;16.20;88.50;;;;;;5030496;28;20211;-77
2023/05/15 09:21:45;;;;;;;6.18;4.72;;;16.20;88.90;;;;;;5028293;28;20212;-77
2023/05/15 09:24:22;;;;;;;4.70;4.32;;;16.20;88.70;;;;;;5028597;28;20184;-77
2023/05/15 09:27:10;;;;;;;5.38;4.80;;;16.20;88.70;;;;;;5024187;28;20176;-77
2023/05/15 09:29:37;;;;;;;6.82;4.90;;;16.20;88.80;;;;;;5029539;28;20185;-77
2023/05/15 09:32:07;;;;;;;5.45;4.95;;;16.30;88.40;;;;;;5030712;28;20823;-77
2023/05/15 09:34:38;;;;;;;7.20;5.57;;;16.30;87.40;;;;;;5036808;28;20626;-77
2023/05/15 09:37:06;;;;;;;5.82;4.93;;;16.30;87.70;;;;;;5030133;28;20637;-76
2023/05/15 09:39:42;;;;;;;6.53;5.78;;;16.40;87.10;;;;;;5031986;28;20228;-76
2023/05/15 09:42:16;;;;;;;6.07;4.45;;;16.40;86.80;;;;;;5028175;28;20236;-76
2023/05/15 09:44:43;;;;;;;5.05;4.47;;;16.50;86.60;;;;;;5035474;28;20180;-76
2023/05/15 09:47:12;;;;;;;5.43;4.95;;;16.50;87.30;;;;;;5028139;28;20187;-77
2023/05/15 09:49:38;;;;;;;4.93;4.60;;;16.50;86.80;;;;;;5034285;28;20181;-77
2023/05/15 09:52:08;;;;;;;6.00;5.47;;;16.50;87.10;;;;;;5032420;28;20192;-76
2023/05/15 09:54:35;;;;;;;7.35;5.22;;;16.50;87.40;;;;;;5030978;28;20184;-76
2023/05/15 09:57:09;;;;;;;7.72;5.47;;;16.50;87.60;;;;;;5032720;28;20168;-77
2023/05/15 09:59:35;;;;;;;6.85;5.35;;;16.50;86.90;;;;;;5034938;28;20197;-76
2023/05/15 10:02:00;;;;;;;7.30;4.90;;;16.60;86.80;;;;;;5032483;28;20211;-76
2023/05/15 10:04:32;;;;;;;6.07;5.53;;;16.70;86.90;;;;;;5030659;28;20578;-77
2023/05/15 10:06:59;;;;;;;5.25;4.82;;;16.80;86.80;;;;;;5025142;28;20187;-77
2023/05/15 10:09:30;;;;;;;4.68;4.28;;;16.90;86.20;;;;;;5029500;28;20673;-77
2023/05/15 10:11:57;;;;;;;6.25;5.30;;;16.90;86.10;;;;;;5034047;28;20303;-77
2023/05/15 10:14:25;;;;;;;5.47;4.95;;;16.90;86.00;;;;;;5027343;28;20182;-77
2023/05/15 10:16:52;;;;;;;4.68;4.28;;;17.00;85.30;;;;;;5029387;28;20200;-77
2023/05/15 10:19:21;;;;;;;4.68;4.28;;;17.10;85.20;;;;;;5027614;28;20215;-77
2023/05/15 10:21:47;;;;;;;4.72;4.32;;;17.10;85.40;;;;;;5028777;28;20258;-76
2023/05/15 10:24:17;;;;;;;4.82;4.10;;;17.20;85.30;;;;;;5029054;28;20195;-76
2023/05/15 10:26:43;;;;;;;5.28;4.22;;;17.30;85.60;;;;;;5032789;28;20265;-76
2023/05/15 10:29:11;;;;;;;5.60;4.25;;;17.40;84.90;;;;;;5032207;28;20184;-75
2023/05/15 10:31:38;;;;;;;4.80;4.40;;;17.50;85.10;;;;;;5032678;28;20620;-75
2023/05/15 10:34:04;;;;;;;4.57;4.25;;;17.60;83.80;;;;;;5032382;28;20168;-75
2023/05/15 10:36:35;;;;;;;4.18;3.80;;;17.60;83.20;;;;;;5032769;28;20188;-75
2023/05/15 10:39:02;;;;;;;5.32;3.42;;;17.70;83.30;;;;;;5031646;28;20195;-77
2023/05/15 10:41:29;;;;;;;4.45;4.05;;;17.80;83.50;;;;;;5033444;28;20211;-76
2023/05/15 10:43:58;;;;;;;5.07;4.57;;;17.80;83.40;;;;;;5031506;28;20534;-76
2023/05/15 10:46:24;;;;;;;5.18;4.78;;;17.90;82.80;;;;;;5032254;28;20576;-76
2023/05/15 10:48:50;;;;;;;5.97;5.28;;;18.00;82.30;;;;;;5032625;28;20247;-76
2023/05/15 10:51:28;;;;;;;5.70;4.70;;;18.10;82.20;;;;;;5032737;28;20295;-77
2023/05/15 10:53:55;;;;;;;5.75;4.80;;;18.20;83.00;;;;;;5031666;28;20251;-76
2023/05/15 10:56:28;;;;;;;5.05;4.65;;;18.20;83.00;;;;;;5032052;28;20176;-76
2023/05/15 10:58:54;;;;;;;6.38;4.50;;;18.20;83.70;;;;;;5023856;28;20187;-75
2023/05/15 11:01:27;;;;;;;4.85;4.25;;;18.20;81.40;;;;;;5031892;28;20278;-76
2023/05/15 11:04:13;;;;;;;5.63;5.03;;;18.00;81.60;;;;;;5032157;28;20192;-76
2023/05/15 11:06:40;;;;;;;7.45;5.00;;;17.90;82.00;;;;;;5032272;28;20173;-76
2023/05/15 11:09:36;;;;;;;5.45;5.03;;;17.80;83.00;;;;;;5031808;28;20666;-75
2023/05/15 11:12:04;;;;;;;5.45;4.45;;;17.80;83.70;;;;;;5020329;28;20187;-75
2023/05/15 11:14:40;;;;;;;5.15;4.30;;;17.70;83.80;;;;;;5031569;28;20172;-77
2023/05/15 11:17:11;;;;;;;4.65;4.30;;;17.70;83.30;;;;;;5030087;28;20274;-75
2023/05/15 11:19:48;;;;;;;5.03;4.18;;;17.60;83.60;;;;;;5030154;28;20185;-75
2023/05/15 11:22:26;;;;;;;5.10;4.63;;;17.60;83.90;;;;;;5025318;28;20781;-77
2023/05/15 11:25:16;;;;;;;5.15;4.85;;;17.70;83.90;;;;;;5038058;28;20547;-77
2023/05/15 11:27:44;;;;;;;5.65;4.75;;;17.70;83.40;;;;;;5028889;28;20187;-77
2023/05/15 11:30:10;;;;;;;6.60;4.43;;;17.80;84.00;;;;;;5034864;28;20191;-77
2023/05/15 11:32:52;;;;;;;5.28;4.78;;;17.80;84.60;;;;;;5028118;28;20188;-77
2023/05/15 11:35:20;;;;;;;5.00;4.63;;;17.90;83.60;;;;;;5033083;28;20180;-77
2023/05/15 11:37:49;;;;;;;5.32;4.93;;;18.00;82.70;;;;;;5014514;28;20648;-77
2023/05/15 11:40:19;;;;;;;5.75;4.80;;;18.20;82.60;;;;;;5031020;28;20212;-77
2023/05/15 11:43:05;;;;;;;5.03;4.53;;;18.30;82.50;;;;;;5025237;28;20196;-77
2023/05/15 11:45:39;;;;;;;5.80;5.15;;;18.50;82.60;;;;;;5032339;28;20254;-76
2023/05/15 11:48:06;;;;;;;6.70;5.38;;;18.60;81.70;;;;;;5033432;28;20196;-76
2023/05/15 11:50:33;;;;;;;5.82;5.20;;;18.80;81.10;;;;;;5031945;28;20183;-76
2023/05/15 11:53:04;;;;;;;5.68;5.18;;;19.00;80.50;;;;;;5037694;28;20172;-76
2023/05/15 11:55:32;;;;;;;5.43;4.90;;;19.10;80.80;;;;;;5030580;28;20183;-75
2023/05/15 11:57:58;;;;;;;5.43;4.93;;;19.30;80.20;;;;;;5023593;28;20582;-76
2023/05/15 12:00:24;;;;;;;5.90;5.35;;;19.30;78.90;;;;;;5026352;28;21107;-79
2023/05/15 12:02:50;;;;;;;9.30;5.50;;;19.40;79.00;;;;;;5031688;28;20216;-79
2023/05/15 12:05:15;;;;;;;5.45;4.38;;;19.50;78.00;;;;;;5027305;28;20442;-76
2023/05/15 12:07:42;;;;;;;9.48;4.40;;;19.40;77.70;;;;;;5031697;28;20180;-77
2023/05/15 12:10:12;;;;;;;5.10;4.78;;;19.40;79.00;;;;;;5031434;28;20250;-77
2023/05/15 12:12:42;;;;;;;4.57;4.28;;;19.40;79.40;;;;;;5033162;28;20195;-76
2023/05/15 12:15:09;;;;;;;5.20;4.78;;;19.50;79.80;;;;;;5032558;28;20184;-76
2023/05/15 12:17:36;;;;;;;5.50;5.07;;;19.50;79.70;;;;;;5034844;28;21017;-76
2023/05/15 12:20:03;;;;;;;5.07;4.18;;;19.50;79.20;;;;;;5030479;28;20307;-76
2023/05/15 12:22:38;;;;;;;6.25;4.60;;;19.50;79.00;;;;;;5036377;28;20189;-76
2023/05/15 12:25:06;;;;;;;6.65;5.18;;;19.50;78.60;;;;;;5039442;28;20210;-76
2023/05/15 12:27:33;;;;;;;5.22;4.68;;;19.50;78.20;;;;;;5034727;28;21151;-76
2023/05/15 12:30:00;;;;;;;5.45;4.75;;;19.40;77.80;;;;;;5037499;28;20332;-77
2023/05/15 12:32:26;;;;;;;5.63;4.80;;;19.40;79.00;;;;;;5037553;28;20217;-77
2023/05/15 12:34:52;;;;;;;5.72;4.70;;;19.30;79.00;;;;;;5037559;28;20244;-77
2023/05/15 12:37:20;;;;;;;7.78;6.93;;;19.30;79.30;;;;;;5031686;28;20215;-78
2023/05/15 12:39:49;;;;;;;;;;;19.30;80.00;;;;;;5038505;28;20091;-78
2023/05/15 12:42:15;;;;;;;;;;;19.40;79.90;;;;;;5043909;28;19917;-77
2023/05/15 12:44:41;;;;;;;;;;;19.70;79.50;;;;;;5028946;28;20000;-77
2023/05/15 12:47:07;;;;;;;;;;;19.90;78.80;;;;;;5026635;28;20426;-76
2023/05/15 12:49:36;;;;;;;;;;;20.00;78.10;;;;;;5030153;28;20097;-76
2023/05/15 12:52:06;;;;;;;;;;;20.10;78.30;;;;;;5032508;28;20011;-75